sensor_id;sensor_type;location;lat;lon;timestamp;P1;durP1;ratioP1;P2;durP2;ratioP2
28958;SDS011;16066;0.000;0.000;2022-11-21T00:01:25;20.03;;;13.87;;
28958;SDS011;16066;0.000;0.000;2022-11-21T00:03:52;20.10;;;14.20;;
28958;SDS011;16066;0.000;0.000;2022-11-21T00:06:18;19.83;;;14.40;;
28958;SDS011;16066;0.000;0.000;2022-11-21T00:08:44;21.43;;;15.27;;
28958;SDS011;16066;0.000;0.000;2022-11-21T00:11:10;20.80;;;14.37;;
28958;SDS011;16066;0.000;0.000;2022-11-21T00:13:36;20.33;;;14.37;;
28958;SDS011;16066;0.000;0.000;2022-11-21T00:16:05;18.50;;;14.40;;
28958;SDS011;16066;0.000;0.000;2022-11-21T00:18:32;19.70;;;13.97;;
28958;SDS011;16066;0.000;0.000;2022-11-21T00:21:02;22.23;;;15.43;;
28958;SDS011;16066;0.000;0.000;2022-11-21T00:23:32;21.53;;;15.20;;
28958;SDS011;16066;0.000;0.000;2022-11-21T00:25:58;21.40;;;14.80;;
28958;SDS011;16066;0.000;0.000;2022-11-21T00:28:27;21.70;;;14.80;;
28958;SDS011;16066;0.000;0.000;2022-11-21T00:30:52;19.10;;;13.67;;
28958;SDS011;16066;0.000;0.000;2022-11-21T00:33:18;19.37;;;14.13;;
28958;SDS011;16066;0.000;0.000;2022-11-21T00:35:43;20.03;;;15.03;;
28958;SDS011;16066;0.000;0.000;2022-11-21T00:38:09;20.70;;;14.77;;
28958;SDS011;16066;0.000;0.000;2022-11-21T00:40:34;19.93;;;14.33;;
28958;SDS011;16066;0.000;0.000;2022-11-21T00:43:00;19.40;;;13.70;;
28958;SDS011;16066;0.000;0.000;2022-11-21T00:45:25;25.53;;;16.17;;
28958;SDS011;16066;0.000;0.000;2022-11-21T00:47:50;21.30;;;14.27;;
28958;SDS011;16066;0.000;0.000;2022-11-21T00:50:16;20.17;;;14.83;;
28958;SDS011;16066;0.000;0.000;2022-11-21T00:52:41;20.00;;;14.57;;
28958;SDS011;16066;0.000;0.000;2022-11-21T00:55:07;24.07;;;16.00;;
28958;SDS011;16066;0.000;0.000;2022-11-21T00:57:33;22.80;;;14.80;;
28958;SDS011;16066;0.000;0.000;2022-11-21T00:59:58;21.30;;;15.00;;
28958;SDS011;16066;0.000;0.000;2022-11-21T01:02:24;21.03;;;14.70;;
28958;SDS011;16066;0.000;0.000;2022-11-21T01:04:49;21.80;;;14.87;;
28958;SDS011;16066;0.000;0.000;2022-11-21T01:07:15;21.53;;;14.93;;
28958;SDS011;16066;0.000;0.000;2022-11-21T01:09:40;23.57;;;16.50;;
28958;SDS011;16066;0.000;0.000;2022-11-21T01:12:06;23.63;;;15.10;;
28958;SDS011;16066;0.000;0.000;2022-11-21T01:14:31;23.73;;;17.40;;
28958;SDS011;16066;0.000;0.000;2022-11-21T01:16:57;21.57;;;16.10;;
28958;SDS011;16066;0.000;0.000;2022-11-21T01:19:22;22.13;;;15.20;;
28958;SDS011;16066;0.000;0.000;2022-11-21T01:21:48;24.20;;;17.50;;
28958;SDS011;16066;0.000;0.000;2022-11-21T01:24:13;24.10;;;16.67;;
28958;SDS011;16066;0.000;0.000;2022-11-21T01:26:39;25.93;;;17.90;;
28958;SDS011;16066;0.000;0.000;2022-11-21T01:29:04;24.63;;;17.27;;
28958;SDS011;16066;0.000;0.000;2022-11-21T01:31:31;24.60;;;17.53;;
28958;SDS011;16066;0.000;0.000;2022-11-21T01:33:57;24.97;;;18.13;;
28958;SDS011;16066;0.000;0.000;2022-11-21T01:36:33;25.87;;;17.03;;
28958;SDS011;16066;0.000;0.000;2022-11-21T01:38:59;23.57;;;16.50;;
28958;SDS011;16066;0.000;0.000;2022-11-21T01:41:30;26.23;;;18.30;;
28958;SDS011;16066;0.000;0.000;2022-11-21T01:43:59;24.93;;;17.80;;
28958;SDS011;16066;0.000;0.000;2022-11-21T01:46:26;25.47;;;18.30;;
28958;SDS011;16066;0.000;0.000;2022-11-21T01:48:53;26.13;;;19.03;;
28958;SDS011;16066;0.000;0.000;2022-11-21T01:51:21;24.73;;;17.50;;
28958;SDS011;16066;0.000;0.000;2022-11-21T01:53:58;28.03;;;18.83;;
28958;SDS011;16066;0.000;0.000;2022-11-21T01:56:42;27.53;;;19.57;;
28958;SDS011;16066;0.000;0.000;2022-11-21T01:59:10;26.87;;;19.00;;
28958;SDS011;16066;0.000;0.000;2022-11-21T02:01:39;29.07;;;19.30;;
28958;SDS011;16066;0.000;0.000;2022-11-21T02:04:05;28.27;;;19.37;;
28958;SDS011;16066;0.000;0.000;2022-11-21T02:06:32;29.03;;;20.47;;
28958;SDS011;16066;0.000;0.000;2022-11-21T02:09:01;28.60;;;19.83;;
28958;SDS011;16066;0.000;0.000;2022-11-21T02:11:31;29.83;;;20.70;;
28958;SDS011;16066;0.000;0.000;2022-11-21T02:14:02;30.60;;;20.00;;
28958;SDS011;16066;0.000;0.000;2022-11-21T02:16:27;30.13;;;20.23;;
28958;SDS011;16066;0.000;0.000;2022-11-21T02:18:53;30.07;;;21.43;;
28958;SDS011;16066;0.000;0.000;2022-11-21T02:21:25;29.50;;;20.37;;
28958;SDS011;16066;0.000;0.000;2022-11-21T02:24:08;26.90;;;18.70;;
28958;SDS011;16066;0.000;0.000;2022-11-21T02:26:49;31.43;;;21.33;;
28958;SDS011;16066;0.000;0.000;2022-11-21T02:29:15;30.73;;;20.70;;
28958;SDS011;16066;0.000;0.000;2022-11-21T02:31:41;27.20;;;19.93;;
28958;SDS011;16066;0.000;0.000;2022-11-21T02:34:06;31.10;;;20.70;;
28958;SDS011;16066;0.000;0.000;2022-11-21T02:36:34;32.43;;;20.20;;
28958;SDS011;16066;0.000;0.000;2022-11-21T02:39:07;27.97;;;19.60;;
28958;SDS011;16066;0.000;0.000;2022-11-21T02:41:41;30.70;;;20.97;;
28958;SDS011;16066;0.000;0.000;2022-11-21T02:44:18;31.33;;;21.57;;
28958;SDS011;16066;0.000;0.000;2022-11-21T02:46:49;32.47;;;22.57;;
28958;SDS011;16066;0.000;0.000;2022-11-21T02:49:17;30.90;;;21.33;;
28958;SDS011;16066;0.000;0.000;2022-11-21T02:51:54;32.63;;;21.87;;
28958;SDS011;16066;0.000;0.000;2022-11-21T02:54:19;31.07;;;21.37;;
28958;SDS011;16066;0.000;0.000;2022-11-21T02:56:45;31.97;;;21.50;;
28958;SDS011;16066;0.000;0.000;2022-11-21T02:59:10;32.77;;;21.80;;
28958;SDS011;16066;0.000;0.000;2022-11-21T03:01:36;32.40;;;22.30;;
28958;SDS011;16066;0.000;0.000;2022-11-21T03:04:01;31.03;;;21.53;;
28958;SDS011;16066;0.000;0.000;2022-11-21T03:06:27;35.07;;;23.60;;
28958;SDS011;16066;0.000;0.000;2022-11-21T03:08:52;32.13;;;22.67;;
28958;SDS011;16066;0.000;0.000;2022-11-21T03:11:18;31.57;;;22.63;;
28958;SDS011;16066;0.000;0.000;2022-11-21T03:13:43;32.60;;;22.13;;
28958;SDS011;16066;0.000;0.000;2022-11-21T03:16:09;32.10;;;21.20;;
28958;SDS011;16066;0.000;0.000;2022-11-21T03:18:34;33.77;;;22.53;;
28958;SDS011;16066;0.000;0.000;2022-11-21T03:21:00;33.30;;;23.50;;
28958;SDS011;16066;0.000;0.000;2022-11-21T03:23:25;35.40;;;23.63;;
28958;SDS011;16066;0.000;0.000;2022-11-21T03:25:50;30.47;;;21.30;;
28958;SDS011;16066;0.000;0.000;2022-11-21T03:28:16;34.87;;;23.03;;
28958;SDS011;16066;0.000;0.000;2022-11-21T03:30:41;34.00;;;23.43;;
28958;SDS011;16066;0.000;0.000;2022-11-21T03:33:07;33.20;;;22.27;;
28958;SDS011;16066;0.000;0.000;2022-11-21T03:35:32;30.10;;;21.13;;
28958;SDS011;16066;0.000;0.000;2022-11-21T03:37:58;31.77;;;21.20;;
28958;SDS011;16066;0.000;0.000;2022-11-21T03:40:23;33.67;;;21.97;;
28958;SDS011;16066;0.000;0.000;2022-11-21T03:42:49;31.77;;;22.13;;
28958;SDS011;16066;0.000;0.000;2022-11-21T03:45:14;37.50;;;22.77;;
28958;SDS011;16066;0.000;0.000;2022-11-21T03:47:40;36.30;;;23.67;;
28958;SDS011;16066;0.000;0.000;2022-11-21T03:50:06;32.40;;;22.00;;
28958;SDS011;16066;0.000;0.000;2022-11-21T03:52:32;33.30;;;23.37;;
28958;SDS011;16066;0.000;0.000;2022-11-21T03:54:57;37.97;;;24.40;;
28958;SDS011;16066;0.000;0.000;2022-11-21T03:57:23;34.53;;;22.60;;
28958;SDS011;16066;0.000;0.000;2022-11-21T03:59:48;33.80;;;23.10;;
28958;SDS011;16066;0.000;0.000;2022-11-21T04:02:14;33.70;;;22.30;;
28958;SDS011;16066;0.000;0.000;2022-11-21T04:04:39;34.77;;;22.70;;
28958;SDS011;16066;0.000;0.000;2022-11-21T04:07:05;36.77;;;24.40;;
28958;SDS011;16066;0.000;0.000;2022-11-21T04:09:30;38.83;;;23.90;;
28958;SDS011;16066;0.000;0.000;2022-11-21T04:11:56;36.70;;;24.30;;
28958;SDS011;16066;0.000;0.000;2022-11-21T04:14:21;34.23;;;23.67;;
28958;SDS011;16066;0.000;0.000;2022-11-21T04:16:47;35.50;;;24.00;;
28958;SDS011;16066;0.000;0.000;2022-11-21T04:19:12;36.70;;;23.97;;
28958;SDS011;16066;0.000;0.000;2022-11-21T04:21:38;34.77;;;24.50;;
28958;SDS011;16066;0.000;0.000;2022-11-21T04:24:03;39.00;;;25.33;;
28958;SDS011;16066;0.000;0.000;2022-11-21T04:26:29;35.83;;;23.97;;
28958;SDS011;16066;0.000;0.000;2022-11-21T04:28:54;37.40;;;24.17;;
28958;SDS011;16066;0.000;0.000;2022-11-21T04:31:21;37.03;;;24.50;;
28958;SDS011;16066;0.000;0.000;2022-11-21T04:33:47;36.13;;;25.63;;
28958;SDS011;16066;0.000;0.000;2022-11-21T04:36:12;36.33;;;25.40;;
28958;SDS011;16066;0.000;0.000;2022-11-21T04:38:38;37.90;;;25.80;;
28958;SDS011;16066;0.000;0.000;2022-11-21T04:41:03;38.37;;;24.90;;
28958;SDS011;16066;0.000;0.000;2022-11-21T04:43:29;39.83;;;24.83;;
28958;SDS011;16066;0.000;0.000;2022-11-21T04:45:54;38.90;;;24.77;;
28958;SDS011;16066;0.000;0.000;2022-11-21T04:48:20;36.63;;;23.70;;
28958;SDS011;16066;0.000;0.000;2022-11-21T04:50:45;35.50;;;24.17;;
28958;SDS011;16066;0.000;0.000;2022-11-21T04:53:11;38.33;;;23.70;;
28958;SDS011;16066;0.000;0.000;2022-11-21T04:55:36;34.37;;;24.63;;
28958;SDS011;16066;0.000;0.000;2022-11-21T04:58:02;37.87;;;24.40;;
28958;SDS011;16066;0.000;0.000;2022-11-21T05:00:27;35.00;;;24.20;;
28958;SDS011;16066;0.000;0.000;2022-11-21T05:02:53;37.27;;;25.87;;
28958;SDS011;16066;0.000;0.000;2022-11-21T05:05:18;35.73;;;24.57;;
28958;SDS011;16066;0.000;0.000;2022-11-21T05:07:44;35.90;;;25.30;;
28958;SDS011;16066;0.000;0.000;2022-11-21T05:10:10;38.03;;;23.80;;
28958;SDS011;16066;0.000;0.000;2022-11-21T05:12:35;35.30;;;24.40;;
28958;SDS011;16066;0.000;0.000;2022-11-21T05:15:20;41.40;;;25.90;;
28958;SDS011;16066;0.000;0.000;2022-11-21T05:17:45;37.87;;;25.73;;
28958;SDS011;16066;0.000;0.000;2022-11-21T05:20:11;37.47;;;25.50;;
28958;SDS011;16066;0.000;0.000;2022-11-21T05:22:37;37.07;;;25.33;;
28958;SDS011;16066;0.000;0.000;2022-11-21T05:25:02;35.57;;;23.83;;
28958;SDS011;16066;0.000;0.000;2022-11-21T05:27:28;39.50;;;24.80;;
28958;SDS011;16066;0.000;0.000;2022-11-21T05:29:54;36.53;;;23.63;;
28958;SDS011;16066;0.000;0.000;2022-11-21T05:32:19;39.03;;;25.33;;
28958;SDS011;16066;0.000;0.000;2022-11-21T05:34:45;39.43;;;27.00;;
28958;SDS011;16066;0.000;0.000;2022-11-21T05:37:10;41.10;;;25.80;;
28958;SDS011;16066;0.000;0.000;2022-11-21T05:39:36;35.13;;;24.07;;
28958;SDS011;16066;0.000;0.000;2022-11-21T05:42:01;37.93;;;24.73;;
28958;SDS011;16066;0.000;0.000;2022-11-21T05:44:27;37.57;;;24.90;;
28958;SDS011;16066;0.000;0.000;2022-11-21T05:46:53;37.83;;;24.60;;
28958;SDS011;16066;0.000;0.000;2022-11-21T05:49:18;38.80;;;25.27;;
28958;SDS011;16066;0.000;0.000;2022-11-21T05:51:44;38.30;;;24.77;;
28958;SDS011;16066;0.000;0.000;2022-11-21T05:54:12;36.43;;;24.90;;
28958;SDS011;16066;0.000;0.000;2022-11-21T05:56:38;38.37;;;26.17;;
28958;SDS011;16066;0.000;0.000;2022-11-21T05:59:04;44.40;;;27.30;;
28958;SDS011;16066;0.000;0.000;2022-11-21T06:01:30;39.40;;;25.93;;
28958;SDS011;16066;0.000;0.000;2022-11-21T06:04:14;38.33;;;25.00;;
28958;SDS011;16066;0.000;0.000;2022-11-21T06:06:39;37.33;;;26.07;;
28958;SDS011;16066;0.000;0.000;2022-11-21T06:09:05;41.50;;;27.00;;
28958;SDS011;16066;0.000;0.000;2022-11-21T06:11:31;38.83;;;24.80;;
28958;SDS011;16066;0.000;0.000;2022-11-21T06:13:57;43.63;;;26.80;;
28958;SDS011;16066;0.000;0.000;2022-11-21T06:16:22;40.00;;;27.13;;
28958;SDS011;16066;0.000;0.000;2022-11-21T06:18:49;36.73;;;23.30;;
28958;SDS011;16066;0.000;0.000;2022-11-21T06:21:17;39.50;;;25.83;;
28958;SDS011;16066;0.000;0.000;2022-11-21T06:23:44;38.60;;;26.60;;
28958;SDS011;16066;0.000;0.000;2022-11-21T06:26:12;38.07;;;26.23;;
28958;SDS011;16066;0.000;0.000;2022-11-21T06:28:39;37.27;;;23.80;;
28958;SDS011;16066;0.000;0.000;2022-11-21T06:31:08;41.20;;;24.73;;
28958;SDS011;16066;0.000;0.000;2022-11-21T06:33:35;39.37;;;24.50;;
28958;SDS011;16066;0.000;0.000;2022-11-21T06:36:05;36.20;;;24.10;;
28958;SDS011;16066;0.000;0.000;2022-11-21T06:38:32;35.73;;;23.57;;
28958;SDS011;16066;0.000;0.000;2022-11-21T06:41:02;42.33;;;26.50;;
28958;SDS011;16066;0.000;0.000;2022-11-21T06:43:34;37.93;;;25.37;;
28958;SDS011;16066;0.000;0.000;2022-11-21T06:45:59;45.43;;;24.40;;
28958;SDS011;16066;0.000;0.000;2022-11-21T06:48:27;47.07;;;21.70;;
28958;SDS011;16066;0.000;0.000;2022-11-21T06:50:57;33.93;;;22.87;;
28958;SDS011;16066;0.000;0.000;2022-11-21T06:53:23;38.30;;;23.10;;
28958;SDS011;16066;0.000;0.000;2022-11-21T06:55:48;34.23;;;22.70;;
28958;SDS011;16066;0.000;0.000;2022-11-21T06:58:14;36.13;;;23.33;;
28958;SDS011;16066;0.000;0.000;2022-11-21T07:00:39;35.33;;;22.90;;
28958;SDS011;16066;0.000;0.000;2022-11-21T07:03:05;32.77;;;21.03;;
28958;SDS011;16066;0.000;0.000;2022-11-21T07:05:30;37.40;;;22.30;;
28958;SDS011;16066;0.000;0.000;2022-11-21T07:07:57;40.00;;;21.03;;
28958;SDS011;16066;0.000;0.000;2022-11-21T07:10:26;39.20;;;21.57;;
28958;SDS011;16066;0.000;0.000;2022-11-21T07:12:56;44.40;;;22.93;;
28958;SDS011;16066;0.000;0.000;2022-11-21T07:15:44;34.43;;;21.70;;
28958;SDS011;16066;0.000;0.000;2022-11-21T07:18:11;36.13;;;22.07;;
28958;SDS011;16066;0.000;0.000;2022-11-21T07:20:36;31.70;;;20.10;;
28958;SDS011;16066;0.000;0.000;2022-11-21T07:23:02;28.53;;;18.80;;
28958;SDS011;16066;0.000;0.000;2022-11-21T07:25:28;37.50;;;20.53;;
28958;SDS011;16066;0.000;0.000;2022-11-21T07:27:56;27.57;;;18.20;;
28958;SDS011;16066;0.000;0.000;2022-11-21T07:30:22;31.00;;;19.40;;
28958;SDS011;16066;0.000;0.000;2022-11-21T07:32:53;27.57;;;17.23;;
28958;SDS011;16066;0.000;0.000;2022-11-21T07:35:20;26.37;;;17.50;;
28958;SDS011;16066;0.000;0.000;2022-11-21T07:37:45;27.70;;;18.43;;
28958;SDS011;16066;0.000;0.000;2022-11-21T07:40:11;28.80;;;19.27;;
28958;SDS011;16066;0.000;0.000;2022-11-21T07:42:37;28.30;;;19.20;;
28958;SDS011;16066;0.000;0.000;2022-11-21T07:45:02;28.47;;;18.10;;
28958;SDS011;16066;0.000;0.000;2022-11-21T07:47:28;32.17;;;19.67;;
28958;SDS011;16066;0.000;0.000;2022-11-21T07:49:54;31.97;;;21.93;;
28958;SDS011;16066;0.000;0.000;2022-11-21T07:52:19;28.47;;;19.30;;
28958;SDS011;16066;0.000;0.000;2022-11-21T07:54:45;30.37;;;19.43;;
28958;SDS011;16066;0.000;0.000;2022-11-21T07:57:10;28.23;;;19.00;;
28958;SDS011;16066;0.000;0.000;2022-11-21T07:59:36;30.90;;;19.40;;
28958;SDS011;16066;0.000;0.000;2022-11-21T08:02:02;29.50;;;20.73;;
28958;SDS011;16066;0.000;0.000;2022-11-21T08:04:28;31.23;;;21.27;;
28958;SDS011;16066;0.000;0.000;2022-11-21T08:06:53;29.83;;;19.13;;
28958;SDS011;16066;0.000;0.000;2022-11-21T08:09:19;30.13;;;20.40;;
28958;SDS011;16066;0.000;0.000;2022-11-21T08:11:45;31.03;;;19.63;;
28958;SDS011;16066;0.000;0.000;2022-11-21T08:14:10;26.40;;;19.10;;
28958;SDS011;16066;0.000;0.000;2022-11-21T08:16:36;30.00;;;20.00;;
28958;SDS011;16066;0.000;0.000;2022-11-21T08:19:01;30.73;;;20.20;;
28958;SDS011;16066;0.000;0.000;2022-11-21T08:21:27;30.90;;;21.30;;
28958;SDS011;16066;0.000;0.000;2022-11-21T08:23:53;29.90;;;20.37;;
28958;SDS011;16066;0.000;0.000;2022-11-21T08:26:19;31.47;;;20.83;;
28958;SDS011;16066;0.000;0.000;2022-11-21T08:28:44;31.57;;;21.60;;
28958;SDS011;16066;0.000;0.000;2022-11-21T08:31:10;33.37;;;22.87;;
28958;SDS011;16066;0.000;0.000;2022-11-21T08:33:35;34.60;;;22.43;;
28958;SDS011;16066;0.000;0.000;2022-11-21T08:36:04;33.40;;;22.23;;
28958;SDS011;16066;0.000;0.000;2022-11-21T08:38:30;34.13;;;24.27;;
28958;SDS011;16066;0.000;0.000;2022-11-21T08:40:57;32.73;;;22.77;;
28958;SDS011;16066;0.000;0.000;2022-11-21T08:43:40;33.90;;;22.40;;
28958;SDS011;16066;0.000;0.000;2022-11-21T08:46:06;31.07;;;22.17;;
28958;SDS011;16066;0.000;0.000;2022-11-21T08:48:32;30.80;;;22.30;;
28958;SDS011;16066;0.000;0.000;2022-11-21T08:50:57;31.23;;;21.20;;
28958;SDS011;16066;0.000;0.000;2022-11-21T08:53:23;31.70;;;21.87;;
28958;SDS011;16066;0.000;0.000;2022-11-21T08:55:49;31.17;;;22.03;;
28958;SDS011;16066;0.000;0.000;2022-11-21T08:58:14;30.43;;;20.80;;
28958;SDS011;16066;0.000;0.000;2022-11-21T09:00:39;33.47;;;21.03;;
28958;SDS011;16066;0.000;0.000;2022-11-21T09:03:05;27.60;;;18.77;;
28958;SDS011;16066;0.000;0.000;2022-11-21T09:05:31;28.70;;;19.00;;
28958;SDS011;16066;0.000;0.000;2022-11-21T09:07:57;27.77;;;20.17;;
28958;SDS011;16066;0.000;0.000;2022-11-21T09:10:26;25.90;;;17.83;;
28958;SDS011;16066;0.000;0.000;2022-11-21T09:12:53;29.30;;;19.17;;
28958;SDS011;16066;0.000;0.000;2022-11-21T09:15:21;26.23;;;17.60;;
28958;SDS011;16066;0.000;0.000;2022-11-21T09:18:06;24.10;;;16.27;;
28958;SDS011;16066;0.000;0.000;2022-11-21T09:20:32;31.20;;;18.50;;
28958;SDS011;16066;0.000;0.000;2022-11-21T09:23:06;27.30;;;18.37;;
28958;SDS011;16066;0.000;0.000;2022-11-21T09:25:33;24.40;;;17.23;;
28958;SDS011;16066;0.000;0.000;2022-11-21T09:27:59;26.57;;;17.83;;
28958;SDS011;16066;0.000;0.000;2022-11-21T09:30:29;28.73;;;16.47;;
28958;SDS011;16066;0.000;0.000;2022-11-21T09:32:58;25.53;;;17.10;;
28958;SDS011;16066;0.000;0.000;2022-11-21T09:35:27;24.93;;;17.17;;
28958;SDS011;16066;0.000;0.000;2022-11-21T09:37:53;25.80;;;17.70;;
28958;SDS011;16066;0.000;0.000;2022-11-21T09:40:18;29.73;;;18.83;;
28958;SDS011;16066;0.000;0.000;2022-11-21T09:42:57;27.53;;;17.50;;
28958;SDS011;16066;0.000;0.000;2022-11-21T09:45:29;25.70;;;17.13;;
28958;SDS011;16066;0.000;0.000;2022-11-21T09:48:01;27.27;;;18.80;;
28958;SDS011;16066;0.000;0.000;2022-11-21T09:50:33;22.40;;;15.57;;
28958;SDS011;16066;0.000;0.000;2022-11-21T09:53:02;24.73;;;17.60;;
28958;SDS011;16066;0.000;0.000;2022-11-21T09:55:44;22.40;;;15.67;;
28958;SDS011;16066;0.000;0.000;2022-11-21T09:58:39;23.97;;;17.40;;
28958;SDS011;16066;0.000;0.000;2022-11-21T10:01:09;27.13;;;16.63;;
28958;SDS011;16066;0.000;0.000;2022-11-21T10:03:43;26.20;;;17.10;;
28958;SDS011;16066;0.000;0.000;2022-11-21T10:08:50;24.47;;;17.53;;
28958;SDS011;16066;0.000;0.000;2022-11-21T10:11:29;24.63;;;16.00;;
28958;SDS011;16066;0.000;0.000;2022-11-21T10:14:07;25.20;;;17.70;;
28958;SDS011;16066;0.000;0.000;2022-11-21T10:16:48;24.37;;;17.17;;
28958;SDS011;16066;0.000;0.000;2022-11-21T10:22:30;112.63;;;57.50;;
28958;SDS011;16066;0.000;0.000;2022-11-21T10:25:23;204.50;;;103.27;;
28958;SDS011;16066;0.000;0.000;2022-11-21T10:28:10;243.03;;;126.80;;
28958;SDS011;16066;0.000;0.000;2022-11-21T10:30:46;281.87;;;144.87;;
28958;SDS011;16066;0.000;0.000;2022-11-21T10:33:31;281.97;;;143.43;;
28958;SDS011;16066;0.000;0.000;2022-11-21T10:36:04;298.23;;;148.87;;
28958;SDS011;16066;0.000;0.000;2022-11-21T10:38:49;304.03;;;146.47;;
28958;SDS011;16066;0.000;0.000;2022-11-21T10:41:22;275.23;;;147.87;;
28958;SDS011;16066;0.000;0.000;2022-11-21T10:47:43;263.33;;;133.70;;
28958;SDS011;16066;0.000;0.000;2022-11-21T10:52:34;239.57;;;122.97;;
28958;SDS011;16066;0.000;0.000;2022-11-21T10:57:35;201.27;;;111.53;;
28958;SDS011;16066;0.000;0.000;2022-11-21T11:02:38;178.03;;;103.50;;
28958;SDS011;16066;0.000;0.000;2022-11-21T11:05:31;178.83;;;101.27;;
28958;SDS011;16066;0.000;0.000;2022-11-21T11:08:02;199.00;;;100.63;;
28958;SDS011;16066;0.000;0.000;2022-11-21T11:10:39;178.73;;;99.10;;
28958;SDS011;16066;0.000;0.000;2022-11-21T11:13:17;174.63;;;96.30;;
28958;SDS011;16066;0.000;0.000;2022-11-21T11:16:09;157.70;;;89.20;;
28958;SDS011;16066;0.000;0.000;2022-11-21T11:19:03;150.80;;;82.07;;
28958;SDS011;16066;0.000;0.000;2022-11-21T11:29:14;112.90;;;64.33;;
28958;SDS011;16066;0.000;0.000;2022-11-21T11:31:53;113.83;;;66.10;;
28958;SDS011;16066;0.000;0.000;2022-11-21T11:34:19;113.03;;;64.17;;
28958;SDS011;16066;0.000;0.000;2022-11-21T11:37:04;109.97;;;62.90;;
28958;SDS011;16066;0.000;0.000;2022-11-21T11:39:44;102.73;;;57.83;;
28958;SDS011;16066;0.000;0.000;2022-11-21T11:42:23;101.90;;;57.07;;
28958;SDS011;16066;0.000;0.000;2022-11-21T11:47:55;93.77;;;56.80;;
28958;SDS011;16066;0.000;0.000;2022-11-21T11:55:42;88.83;;;48.73;;
28958;SDS011;16066;0.000;0.000;2022-11-21T11:58:17;81.63;;;44.20;;
28958;SDS011;16066;0.000;0.000;2022-11-21T12:00:45;71.90;;;44.37;;
28958;SDS011;16066;0.000;0.000;2022-11-21T12:03:18;68.10;;;41.60;;
28958;SDS011;16066;0.000;0.000;2022-11-21T12:08:24;63.20;;;37.17;;
28958;SDS011;16066;0.000;0.000;2022-11-21T12:10:58;58.80;;;38.50;;
28958;SDS011;16066;0.000;0.000;2022-11-21T12:13:49;60.83;;;37.97;;
28958;SDS011;16066;0.000;0.000;2022-11-21T12:16:19;61.73;;;36.60;;
28958;SDS011;16066;0.000;0.000;2022-11-21T12:19:02;60.00;;;35.50;;
28958;SDS011;16066;0.000;0.000;2022-11-21T12:21:34;62.70;;;35.33;;
28958;SDS011;16066;0.000;0.000;2022-11-21T12:24:03;56.27;;;34.87;;
28958;SDS011;16066;0.000;0.000;2022-11-21T12:29:26;54.77;;;33.00;;
28958;SDS011;16066;0.000;0.000;2022-11-21T12:40:29;54.03;;;30.90;;
28958;SDS011;16066;0.000;0.000;2022-11-21T12:45:56;38.80;;;26.30;;
28958;SDS011;16066;0.000;0.000;2022-11-21T12:48:53;46.23;;;27.97;;
28958;SDS011;16066;0.000;0.000;2022-11-21T12:52:00;51.23;;;26.93;;
28958;SDS011;16066;0.000;0.000;2022-11-21T12:54:52;47.20;;;26.10;;
28958;SDS011;16066;0.000;0.000;2022-11-21T12:57:56;40.00;;;24.60;;
28958;SDS011;16066;0.000;0.000;2022-11-21T13:03:46;42.60;;;24.70;;
28958;SDS011;16066;0.000;0.000;2022-11-21T13:06:38;37.90;;;23.43;;
28958;SDS011;16066;0.000;0.000;2022-11-21T13:09:07;36.37;;;21.33;;
28958;SDS011;16066;0.000;0.000;2022-11-21T13:14:52;35.17;;;24.17;;
28958;SDS011;16066;0.000;0.000;2022-11-21T13:23:03;42.20;;;26.97;;
28958;SDS011;16066;0.000;0.000;2022-11-21T13:36:01;42.43;;;23.07;;
28958;SDS011;16066;0.000;0.000;2022-11-21T13:38:26;40.97;;;24.97;;
28958;SDS011;16066;0.000;0.000;2022-11-21T13:40:52;44.40;;;24.90;;
28958;SDS011;16066;0.000;0.000;2022-11-21T13:43:36;37.43;;;24.17;;
28958;SDS011;16066;0.000;0.000;2022-11-21T13:46:02;41.87;;;24.27;;
28958;SDS011;16066;0.000;0.000;2022-11-21T14:08:22;29.40;;;19.10;;
28958;SDS011;16066;0.000;0.000;2022-11-21T14:10:51;37.87;;;21.57;;
28958;SDS011;16066;0.000;0.000;2022-11-21T14:13:28;35.23;;;20.00;;
28958;SDS011;16066;0.000;0.000;2022-11-21T14:18:48;35.93;;;20.77;;
28958;SDS011;16066;0.000;0.000;2022-11-21T14:21:17;35.70;;;20.20;;
28958;SDS011;16066;0.000;0.000;2022-11-21T14:23:52;34.93;;;19.50;;
28958;SDS011;16066;0.000;0.000;2022-11-21T14:26:20;34.93;;;19.47;;
28958;SDS011;16066;0.000;0.000;2022-11-21T14:28:46;26.37;;;17.70;;
28958;SDS011;16066;0.000;0.000;2022-11-21T14:31:12;29.57;;;17.87;;
28958;SDS011;16066;0.000;0.000;2022-11-21T14:33:41;29.67;;;17.50;;
28958;SDS011;16066;0.000;0.000;2022-11-21T14:38:45;28.00;;;16.90;;
28958;SDS011;16066;0.000;0.000;2022-11-21T14:41:23;26.90;;;16.60;;
28958;SDS011;16066;0.000;0.000;2022-11-21T14:46:21;24.70;;;15.27;;
28958;SDS011;16066;0.000;0.000;2022-11-21T14:48:47;23.23;;;15.03;;
28958;SDS011;16066;0.000;0.000;2022-11-21T14:51:15;25.30;;;14.07;;
28958;SDS011;16066;0.000;0.000;2022-11-21T14:53:44;21.97;;;15.70;;
28958;SDS011;16066;0.000;0.000;2022-11-21T14:56:20;27.77;;;15.50;;
28958;SDS011;16066;0.000;0.000;2022-11-21T14:58:51;22.37;;;13.50;;
28958;SDS011;16066;0.000;0.000;2022-11-21T15:01:24;23.77;;;14.37;;
28958;SDS011;16066;0.000;0.000;2022-11-21T15:06:27;22.70;;;13.63;;
28958;SDS011;16066;0.000;0.000;2022-11-21T15:08:57;24.30;;;13.80;;
28958;SDS011;16066;0.000;0.000;2022-11-21T15:11:30;21.67;;;13.07;;
28958;SDS011;16066;0.000;0.000;2022-11-21T15:14:01;20.43;;;12.77;;
28958;SDS011;16066;0.000;0.000;2022-11-21T15:16:49;25.63;;;13.60;;
28958;SDS011;16066;0.000;0.000;2022-11-21T15:19:20;25.53;;;14.37;;
28958;SDS011;16066;0.000;0.000;2022-11-21T15:21:48;20.60;;;13.80;;
28958;SDS011;16066;0.000;0.000;2022-11-21T15:24:29;20.37;;;12.77;;
28958;SDS011;16066;0.000;0.000;2022-11-21T15:30:03;23.07;;;13.30;;
28958;SDS011;16066;0.000;0.000;2022-11-21T15:32:30;21.90;;;13.40;;
28958;SDS011;16066;0.000;0.000;2022-11-21T15:34:56;21.90;;;12.10;;
28958;SDS011;16066;0.000;0.000;2022-11-21T15:37:22;17.50;;;11.93;;
28958;SDS011;16066;0.000;0.000;2022-11-21T15:39:49;22.03;;;13.40;;
28958;SDS011;16066;0.000;0.000;2022-11-21T15:45:01;21.50;;;12.33;;
28958;SDS011;16066;0.000;0.000;2022-11-21T15:47:35;20.48;;;13.00;;
28958;SDS011;16066;0.000;0.000;2022-11-21T15:50:01;23.00;;;12.97;;
28958;SDS011;16066;0.000;0.000;2022-11-21T15:52:27;20.80;;;12.57;;
28958;SDS011;16066;0.000;0.000;2022-11-21T15:54:53;18.90;;;11.07;;
28958;SDS011;16066;0.000;0.000;2022-11-21T15:57:18;22.13;;;13.40;;
28958;SDS011;16066;0.000;0.000;2022-11-21T15:59:45;20.77;;;12.10;;
28958;SDS011;16066;0.000;0.000;2022-11-21T16:02:11;18.63;;;12.90;;
28958;SDS011;16066;0.000;0.000;2022-11-21T16:04:38;22.60;;;12.57;;
28958;SDS011;16066;0.000;0.000;2022-11-21T16:07:04;19.50;;;11.70;;
28958;SDS011;16066;0.000;0.000;2022-11-21T16:09:30;20.60;;;12.50;;
28958;SDS011;16066;0.000;0.000;2022-11-21T16:11:55;20.17;;;12.20;;
28958;SDS011;16066;0.000;0.000;2022-11-21T16:14:21;26.03;;;12.57;;
28958;SDS011;16066;0.000;0.000;2022-11-21T16:16:46;19.47;;;11.10;;
28958;SDS011;16066;0.000;0.000;2022-11-21T16:19:12;18.97;;;11.67;;
28958;SDS011;16066;0.000;0.000;2022-11-21T16:21:38;20.37;;;11.40;;
28958;SDS011;16066;0.000;0.000;2022-11-21T16:24:04;23.63;;;13.70;;
28958;SDS011;16066;0.000;0.000;2022-11-21T16:26:30;22.23;;;12.10;;
28958;SDS011;16066;0.000;0.000;2022-11-21T16:28:57;21.80;;;11.97;;
28958;SDS011;16066;0.000;0.000;2022-11-21T16:31:29;20.90;;;11.73;;
28958;SDS011;16066;0.000;0.000;2022-11-21T16:33:55;21.20;;;12.90;;